Latest Weather Observations for Hay Point

IDQ60801

Issued at 11:02 am EST Saturday 30 April 2016 (issued every 30 minutes, with the page automatically refreshed every 10 minutes)

About weather observations | Map of weather stations | Latest weather observations for QLD | Other Formats
Station Details ID: 033317 Name: HAY POINT Lat: -21.29 Lon: 149.30 Height: 7.0 m
Data from the previous 72 hours. | See also: Recent months for locations in Queensland
Date/Time
EST
Temp
°C
App
Temp
°C
Dew
Point
Rel
Hum
%
Delta-T
°C
Wind Press
QNH
hPa
Press
MSL
hPa
Rain
since 9 am
mm
Dir
 
Spd
km/h
Gust
km/h
Spd
kts
Gust
kts
30/11:00am - - - - - SSE 30 33 16 18 - - -
30/10:30am - - - - - SSE 30 39 16 21 - - -
30/10:00am - - - - - S 20 30 11 16 - - -
30/09:30am - - - - - S 22 30 12 16 - - -
30/09:00am - - - - - SSE 22 33 12 18 - - -
30/08:30am - - - - - SSE 22 32 12 17 - - -
30/08:00am - - - - - S 20 26 11 14 - - -
30/07:30am - - - - - S 17 22 9 12 - - -
30/07:00am - - - - - S 19 24 10 13 - - -
30/06:30am - - - - - S 17 20 9 11 - - -
30/06:00am - - - - - S 19 26 10 14 - - -
30/05:30am - - - - - S 19 26 10 14 - - -
30/05:00am - - - - - SSE 17 24 9 13 - - -
30/04:30am - - - - - S 17 24 9 13 - - -
30/04:00am - - - - - S 19 24 10 13 - - -
30/03:30am - - - - - SSE 22 28 12 15 - - -
30/03:00am - - - - - SSE 28 32 15 17 - - -
30/02:30am - - - - - SSE 20 32 11 17 - - -
30/02:00am - - - - - SSE 26 32 14 17 - - -
30/01:30am - - - - - SE 26 32 14 17 - - -
30/01:00am - - - - - SSE 26 30 14 16 - - -
30/12:30am - - - - - SE 24 30 13 16 - - -
30/12:00am - - - - - SE 19 24 10 13 - - -
 
Date/Time
EST
Temp
°C
App
Temp
°C
Dew
Point
Rel
Hum
%
Delta-T
°C
Wind Press
QNH
hPa
Press
MSL
hPa
Rain
since 9 am
mm
Dir
 
Spd
km/h
Gust
km/h
Spd
kts
Gust
kts
29/11:30pm - - - - - SE 20 28 11 15 - - -
29/11:00pm - - - - - SE 22 30 12 16 - - -
29/10:30pm - - - - - SE 20 30 11 16 - - -
29/10:00pm - - - - - SE 17 26 9 14 - - -
29/09:30pm - - - - - SE 20 28 11 15 - - -
29/09:00pm - - - - - SE 22 28 12 15 - - -
29/08:30pm - - - - - SE 22 30 12 16 - - -
29/08:00pm - - - - - SE 20 28 11 15 - - -
29/07:30pm - - - - - SE 22 30 12 16 - - -
29/07:00pm - - - - - SE 20 28 11 15 - - -
29/06:30pm - - - - - SE 20 30 11 16 - - -
29/06:00pm - - - - - SE 24 30 13 16 - - -
29/05:30pm - - - - - SE 20 28 11 15 - - -
29/05:00pm - - - - - SE 26 32 14 17 - - -
29/04:30pm - - - - - SE 26 32 14 17 - - -
29/04:00pm - - - - - SE 26 32 14 17 - - -
29/03:30pm - - - - - SE 26 32 14 17 - - -
29/03:00pm - - - - - SE 28 33 15 18 - - -
29/02:30pm - - - - - SSE 28 33 15 18 - - -
29/02:00pm - - - - - SSE 28 32 15 17 - - -
29/01:30pm - - - - - SSE 28 32 15 17 - - -
29/01:00pm - - - - - SSE 28 33 15 18 - - -
29/12:30pm - - - - - SSE 30 33 16 18 - - -
29/12:00pm - - - - - SSE 30 33 16 18 - - -
29/11:30am - - - - - SSE 32 35 17 19 - - -
29/11:00am - - - - - SSE 28 33 15 18 - - -
29/10:30am - - - - - SSE 30 37 16 20 - - -
29/10:00am - - - - - SSE 32 37 17 20 - - -
29/09:30am - - - - - SSE 28 37 15 20 - - -
29/09:00am - - - - - SSE 28 33 15 18 - - -
29/08:30am - - - - - S 20 26 11 14 - - -
29/08:00am - - - - - SSE 20 30 11 16 - - -
29/07:30am - - - - - SSE 26 35 14 19 - - -
29/07:00am - - - - - S 24 30 13 16 - - -
29/06:30am - - - - - S 24 33 13 18 - - -
29/06:00am - - - - - SSE 30 37 16 20 - - -
29/05:30am - - - - - SSE 33 41 18 22 - - -
29/05:00am - - - - - SE 26 35 14 19 - - -
29/04:30am - - - - - SE 28 32 15 17 - - -
29/04:00am - - - - - ESE 30 37 16 20 - - -
29/03:30am - - - - - SE 26 33 14 18 - - -
29/03:00am - - - - - SE 24 37 13 20 - - -
29/02:30am - - - - - ESE 30 33 16 18 - - -
29/02:00am - - - - - ESE 33 41 18 22 - - -
29/01:30am - - - - - ESE 32 37 17 20 - - -
29/01:00am - - - - - ESE 35 39 19 21 - - -
29/12:30am - - - - - SE 32 44 17 24 - - -
29/12:00am - - - - - SE 28 41 15 22 - - -
 
Date/Time
EST
Temp
°C
App
Temp
°C
Dew
Point
Rel
Hum
%
Delta-T
°C
Wind Press
QNH
hPa
Press
MSL
hPa
Rain
since 9 am
mm
Dir
 
Spd
km/h
Gust
km/h
Spd
kts
Gust
kts
28/11:30pm - - - - - SE 32 41 17 22 - - -
28/11:00pm - - - - - SE 32 41 17 22 - - -
28/10:30pm - - - - - SE 28 39 15 21 - - -
28/10:00pm - - - - - SE 33 50 18 27 - - -
28/09:57pm - - - - - SE 32 50 17 27 - - -
28/09:30pm - - - - - SE 30 39 16 21 - - -
28/09:00pm - - - - - SE 32 41 17 22 - - -
28/08:30pm - - - - - SE 28 35 15 19 - - -
28/08:00pm - - - - - SE 26 37 14 20 - - -
28/07:30pm - - - - - SE 26 35 14 19 - - -
28/07:00pm - - - - - SE 24 33 13 18 - - -
28/06:30pm - - - - - SE 28 37 15 20 - - -
28/06:00pm - - - - - SE 32 37 17 20 - - -
28/05:30pm - - - - - SE 24 37 13 20 - - -
28/05:00pm - - - - - SE 28 33 15 18 - - -
28/04:30pm - - - - - SE 28 33 15 18 - - -
28/04:00pm - - - - - SE 32 35 17 19 - - -
28/03:30pm - - - - - SE 30 35 16 19 - - -
28/03:00pm - - - - - SE 30 37 16 20 - - -
28/02:30pm - - - - - SSE 33 37 18 20 - - -
28/02:00pm - - - - - SSE 35 39 19 21 - - -
28/01:30pm - - - - - SSE 33 39 18 21 - - -
28/01:00pm - - - - - SSE 32 39 17 21 - - -
28/12:30pm - - - - - SSE 33 39 18 21 - - -
28/12:00pm - - - - - SSE 33 39 18 21 - - -
28/11:30am - - - - - SSE 32 37 17 20 - - -
28/11:00am - - - - - SSE 37 43 20 23 - - -
28/10:30am - - - - - SSE 30 37 16 20 - - -
28/10:00am - - - - - SSE 30 35 16 19 - - -
28/09:30am - - - - - SSE 35 41 19 22 - - -
28/09:00am - - - - - SSE 35 44 19 24 - - -
28/08:30am - - - - - SSE 35 39 19 21 - - -
28/08:00am - - - - - SSE 35 41 19 22 - - -
28/07:30am - - - - - SSE 30 43 16 23 - - -
28/07:00am - - - - - S 24 33 13 18 - - -
28/06:30am - - - - - S 22 28 12 15 - - -
28/06:00am - - - - - S 20 26 11 14 - - -
28/05:30am - - - - - S 24 35 13 19 - - -
28/05:00am - - - - - SSE 26 32 14 17 - - -
28/04:30am - - - - - SSE 30 39 16 21 - - -
28/04:00am - - - - - SSE 32 37 17 20 - - -
28/03:30am - - - - - SE 30 37 16 20 - - -
28/03:00am - - - - - SSE 26 32 14 17 - - -
28/02:30am - - - - - SSE 32 39 17 21 - - -
28/02:00am - - - - - SSE 33 41 18 22 - - -
28/01:43am - - - - - SE 32 50 17 27 - - -
28/01:30am - - - - - SSE 28 37 15 20 - - -
28/01:00am - - - - - SSE 30 33 16 18 - - -
28/12:30am - - - - - SSE 26 30 14 16 - - -
28/12:00am - - - - - SSE 24 30 13 16 - - -
 
Date/Time
EST
Temp
°C
App
Temp
°C
Dew
Point
Rel
Hum
%
Delta-T
°C
Wind Press
QNH
hPa
Press
MSL
hPa
Rain
since 9 am
mm
Dir
 
Spd
km/h
Gust
km/h
Spd
kts
Gust
kts
27/11:30pm - - - - - SSE 28 35 15 19 - - -
27/11:00pm - - - - - SSE 44 54 24 29 - - -
27/10:30pm - - - - - SSE 43 50 23 27 - - -
27/10:00pm - - - - - SSE 33 44 18 24 - - -
27/09:30pm - - - - - ESE 33 48 18 26 - - -
27/09:21pm - - - - - SE 39 48 21 26 - - -
27/09:00pm - - - - - SSE 44 54 24 29 - - -
27/08:43pm - - - - - SSE 35 56 19 30 - - -
27/08:30pm - - - - - SE 30 37 16 20 - - -
27/08:00pm - - - - - SSE 33 39 18 21 - - -
27/07:30pm - - - - - SE 33 48 18 26 - - -
27/07:00pm - - - - - SSE 37 48 20 26 - - -
27/06:30pm - - - - - SSE 39 46 21 25 - - -
27/06:00pm - - - - - SSE 39 57 21 31 - - -
27/05:30pm - - - - - SSE 46 54 25 29 - - -
27/05:08pm - - - - - SSE 37 59 20 32 - - -
27/05:00pm - - - - - SSE 39 48 21 26 - - -
27/04:30pm - - - - - SSE 35 44 19 24 - - -
27/04:00pm - - - - - SE 39 54 21 29 - - -
27/03:30pm - - - - - SE 41 52 22 28 - - -
27/03:00pm - - - - - SSE 46 57 25 31 - - -
27/02:30pm - - - - - SSE 37 41 20 22 - - -
27/02:00pm - - - - - SSE 41 50 22 27 - - -
27/01:30pm - - - - - SSE 43 52 23 28 - - -
27/01:00pm - - - - - SSE 43 50 23 27 - - -
27/12:30pm - - - - - SSE 41 48 22 26 - - -
27/12:00pm - - - - - SSE 41 50 22 27 - - -
27/11:30am - - - - - SSE 35 50 19 27 - - -

Other Formats:

Comma delimited format used in spreadsheet applications
http://www.bom.gov.au/fwo/IDQ60801/IDQ60801.99367.axf

JavaScript Object Notation format (JSON) in row-major order
http://www.bom.gov.au/fwo/IDQ60801/IDQ60801.99367.json